createdAt,value
2018-06-18T00:01:48.822Z,3.73
2018-06-18T00:04:16.985Z,4.13
2018-06-18T00:06:45.296Z,3.80
2018-06-18T00:09:14.310Z,3.70
2018-06-18T00:11:43.095Z,4.40
2018-06-18T00:14:11.510Z,4.03
2018-06-18T00:16:40.265Z,3.27
2018-06-18T00:19:08.699Z,3.90
2018-06-18T00:21:37.020Z,3.63
2018-06-18T00:24:05.364Z,3.57
2018-06-18T00:26:33.505Z,3.43
2018-06-18T00:29:01.623Z,3.80
2018-06-18T00:31:29.771Z,3.90
2018-06-18T00:33:57.864Z,3.30
2018-06-18T00:36:26.132Z,3.57
2018-06-18T00:38:54.261Z,4.00
2018-06-18T00:41:22.474Z,4.00
2018-06-18T00:43:50.578Z,3.90
2018-06-18T00:46:18.647Z,4.20
2018-06-18T00:48:46.793Z,3.60
2018-06-18T00:51:14.699Z,3.80
2018-06-18T00:53:42.872Z,3.70
2018-06-18T00:56:13.810Z,3.80
2018-06-18T00:58:42.005Z,4.07
2018-06-18T01:01:10.825Z,3.87
2018-06-18T01:03:40.016Z,3.60
2018-06-18T01:06:08.429Z,3.80
2018-06-18T01:08:36.589Z,4.00
2018-06-18T01:11:04.860Z,4.57
2018-06-18T01:13:33.056Z,3.73
2018-06-18T01:16:01.739Z,3.97
2018-06-18T01:18:30.083Z,4.10
2018-06-18T01:20:58.216Z,4.00
2018-06-18T01:25:38.873Z,4.50
2018-06-18T01:28:07.122Z,3.43
2018-06-18T01:30:35.901Z,3.83
2018-06-18T01:33:05.079Z,3.90
2018-06-18T01:35:33.467Z,4.90
2018-06-18T01:38:01.597Z,4.20
2018-06-18T01:40:29.726Z,4.37
2018-06-18T01:42:57.911Z,4.33
2018-06-18T01:45:26.147Z,4.60
2018-06-18T01:47:54.453Z,4.50
2018-06-18T01:50:22.674Z,4.70
2018-06-18T01:52:50.923Z,4.37
2018-06-18T01:55:19.096Z,4.50
2018-06-18T01:57:47.395Z,4.50
2018-06-18T02:00:15.543Z,4.50
2018-06-18T02:02:43.948Z,4.50
2018-06-18T02:05:12.154Z,4.33
2018-06-18T02:07:40.432Z,4.50
2018-06-18T02:10:08.607Z,5.03
2018-06-18T02:12:36.807Z,4.90
2018-06-18T02:15:05.198Z,4.43
2018-06-18T02:17:33.347Z,4.57
2018-06-18T02:20:01.529Z,4.53
2018-06-18T02:22:29.808Z,5.50
2018-06-18T02:24:58.098Z,5.03
2018-06-18T02:27:31.718Z,4.20
2018-06-18T02:30:05.390Z,4.30
2018-06-18T02:32:38.942Z,4.90
2018-06-18T02:35:12.384Z,4.53
2018-06-18T02:37:46.076Z,5.00
2018-06-18T02:40:19.920Z,5.30
2018-06-18T02:42:48.112Z,4.50
2018-06-18T02:45:16.487Z,4.80
2018-06-18T02:47:44.762Z,4.63
2018-06-18T02:50:12.892Z,4.83
2018-06-18T02:52:41.111Z,4.73
2018-06-18T02:55:09.539Z,5.47
2018-06-18T02:57:37.685Z,4.93
2018-06-18T03:00:05.978Z,5.77
2018-06-18T03:02:34.157Z,5.70
2018-06-18T03:05:02.453Z,4.90
2018-06-18T03:07:30.671Z,4.90
2018-06-18T03:09:58.926Z,4.50
2018-06-18T03:12:27.170Z,5.40
2018-06-18T03:14:55.336Z,5.53
2018-06-18T03:17:23.653Z,5.07
2018-06-18T03:19:57.483Z,5.10
2018-06-18T03:22:31.219Z,5.57
2018-06-18T03:26:03.399Z,5.30
2018-06-18T03:28:37.116Z,4.90
2018-06-18T03:31:05.273Z,4.70
2018-06-18T03:33:33.518Z,4.73
2018-06-18T03:36:01.832Z,5.23
2018-06-18T03:38:30.079Z,4.77
2018-06-18T03:40:58.281Z,4.80
2018-06-18T03:43:26.765Z,4.43
2018-06-18T03:45:55.550Z,4.83
2018-06-18T03:48:23.691Z,5.30
2018-06-18T03:50:51.831Z,4.80
2018-06-18T03:53:20.045Z,4.90
2018-06-18T03:55:53.933Z,4.40
2018-06-18T03:58:22.058Z,4.50
2018-06-18T04:01:20.516Z,5.53
2018-06-18T04:03:54.595Z,5.33
2018-06-18T04:06:28.204Z,5.30
2018-06-18T04:09:01.681Z,5.10
2018-06-18T04:11:35.647Z,5.77
2018-06-18T04:14:03.913Z,4.27
2018-06-18T04:16:32.106Z,5.63
2018-06-18T04:19:00.371Z,4.63
2018-06-18T04:21:28.590Z,5.50
2018-06-18T04:23:56.870Z,5.40
2018-06-18T04:26:24.962Z,5.67
2018-06-18T04:28:53.164Z,5.67
2018-06-18T04:31:21.331Z,5.70
2018-06-18T04:34:00.838Z,5.63
2018-06-18T04:36:29.049Z,5.50
2018-06-18T04:38:57.216Z,5.40
2018-06-18T04:41:25.563Z,5.40
2018-06-18T04:43:59.288Z,5.77
2018-06-18T04:46:32.944Z,5.20
2018-06-18T04:49:06.578Z,6.00
2018-06-18T04:51:34.827Z,5.43
2018-06-18T04:54:03.030Z,6.70
2018-06-18T04:56:31.238Z,6.93
2018-06-18T04:58:59.332Z,5.50
2018-06-18T05:01:30.582Z,6.20
2018-06-18T05:03:58.784Z,5.93
2018-06-18T05:06:28.324Z,6.03
2018-06-18T05:09:16.524Z,4.93
2018-06-18T05:11:45.118Z,5.50
2018-06-18T05:14:13.337Z,6.60
2018-06-18T05:16:42.176Z,5.60
2018-06-18T05:19:10.354Z,5.37
2018-06-18T05:21:38.554Z,5.93
2018-06-18T05:24:07.142Z,5.77
2018-06-18T05:26:38.180Z,4.17
2018-06-18T05:29:06.466Z,5.70
2018-06-18T05:31:34.711Z,5.30
2018-06-18T05:34:03.083Z,4.90
2018-06-18T05:36:31.843Z,5.50
2018-06-18T05:39:00.297Z,6.40
2018-06-18T05:41:28.518Z,5.10
2018-06-18T05:43:56.663Z,5.17
2018-06-18T05:46:24.834Z,4.47
2018-06-18T05:48:52.968Z,5.07
2018-06-18T05:51:21.144Z,5.10
2018-06-18T05:53:49.277Z,6.60
2018-06-18T05:56:17.365Z,5.07
2018-06-18T05:58:45.495Z,5.10
2018-06-18T06:01:13.731Z,4.50
2018-06-18T06:03:42.151Z,5.20
2018-06-18T06:06:10.399Z,5.27
2018-06-18T06:08:38.535Z,4.77
2018-06-18T06:11:06.773Z,5.37
2018-06-18T06:13:35.073Z,5.27
2018-06-18T06:16:03.223Z,5.30
2018-06-18T06:18:31.646Z,4.60
2018-06-18T06:21:03.088Z,4.77
2018-06-18T06:23:31.335Z,4.87
2018-06-18T06:25:59.648Z,5.90
2018-06-18T06:28:28.061Z,4.83
2018-06-18T06:30:56.270Z,4.97
2018-06-18T06:33:25.653Z,4.60
2018-06-18T06:35:54.723Z,4.97
2018-06-18T06:38:22.663Z,4.47
2018-06-18T06:40:50.767Z,4.70
2018-06-18T06:43:18.899Z,4.70
2018-06-18T06:45:47.121Z,4.40
2018-06-18T06:48:15.465Z,4.70
2018-06-18T06:50:43.587Z,4.90
2018-06-18T06:53:12.030Z,4.77
2018-06-18T06:55:40.138Z,4.80
2018-06-18T06:58:08.356Z,5.00
2018-06-18T07:00:36.721Z,5.10
2018-06-18T07:03:05.051Z,4.73
2018-06-18T07:05:33.241Z,5.03
2018-06-18T07:08:01.471Z,3.83
2018-06-18T07:10:29.632Z,4.77
2018-06-18T07:12:57.940Z,3.83
2018-06-18T07:15:26.076Z,4.60
2018-06-18T07:17:54.180Z,3.87
2018-06-18T07:20:22.316Z,3.80
2018-06-18T07:22:50.474Z,3.20
2018-06-18T07:25:18.736Z,4.30
2018-06-18T07:27:47.082Z,3.83
2018-06-18T07:30:15.260Z,3.47
2018-06-18T07:32:43.922Z,4.00
2018-06-18T07:35:12.759Z,3.30
2018-06-18T07:37:40.742Z,3.93
2018-06-18T07:40:08.940Z,3.37
2018-06-18T07:42:37.144Z,3.83
2018-06-18T07:45:05.445Z,4.20
2018-06-18T07:47:33.728Z,4.30
2018-06-18T07:50:02.004Z,4.20
2018-06-18T07:52:29.971Z,3.97
2018-06-18T07:54:58.136Z,4.00
2018-06-18T07:57:26.293Z,3.90
2018-06-18T07:59:54.467Z,3.97
2018-06-18T08:02:22.837Z,4.83
2018-06-18T08:04:50.955Z,3.03
2018-06-18T08:07:19.208Z,4.90
2018-06-18T08:09:47.596Z,4.47
2018-06-18T08:12:15.845Z,4.10
2018-06-18T08:14:44.158Z,4.10
2018-06-18T08:17:12.297Z,4.67
2018-06-18T08:19:40.593Z,4.20
2018-06-18T08:22:08.829Z,3.80
2018-06-18T08:24:37.009Z,4.10
2018-06-18T08:27:05.268Z,4.23
2018-06-18T08:29:33.538Z,4.07
2018-06-18T08:32:01.871Z,3.50
2018-06-18T08:34:29.833Z,4.93
2018-06-18T08:36:58.105Z,5.40
2018-06-18T08:39:26.277Z,5.37
2018-06-18T08:42:01.271Z,5.00
2018-06-18T08:44:29.420Z,4.50
2018-06-18T08:46:57.543Z,4.57
2018-06-18T08:49:25.705Z,4.57
2018-06-18T08:51:59.350Z,5.10
2018-06-18T08:55:34.138Z,5.60
2018-06-18T08:58:07.843Z,5.13
2018-06-18T09:00:41.628Z,5.53
2018-06-18T09:03:15.935Z,5.40
2018-06-18T09:05:53.725Z,5.27
2018-06-18T09:08:24.007Z,5.30
2018-06-18T09:10:53.046Z,5.70
2018-06-18T09:13:21.385Z,5.13
2018-06-18T09:15:49.564Z,5.53
2018-06-18T09:18:17.706Z,6.00
2018-06-18T09:20:45.868Z,5.43
2018-06-18T09:23:14.089Z,5.83
2018-06-18T09:25:46.519Z,5.80
2018-06-18T09:28:15.136Z,5.43
2018-06-18T09:30:43.251Z,5.60
2018-06-18T09:33:11.345Z,5.07
2018-06-18T09:35:46.122Z,5.13
2018-06-18T09:38:14.286Z,4.93
2018-06-18T09:40:42.508Z,4.93
2018-06-18T09:43:10.723Z,4.80
2018-06-18T09:45:38.965Z,5.50
2018-06-18T09:48:07.474Z,4.53
2018-06-18T09:50:41.343Z,5.87
2018-06-18T09:53:14.895Z,5.63
2018-06-18T09:55:48.511Z,5.80
2018-06-18T09:58:21.947Z,5.50
2018-06-18T10:01:01.930Z,5.83
2018-06-18T10:03:30.477Z,5.00
2018-06-18T10:05:58.617Z,5.07
2018-06-18T10:08:26.827Z,6.07
2018-06-18T10:10:55.163Z,4.50
2018-06-18T10:13:23.530Z,5.40
2018-06-18T10:15:51.799Z,6.77
2018-06-18T10:18:20.382Z,5.77
2018-06-18T10:20:48.540Z,7.10
2018-06-18T10:23:16.788Z,5.70
2018-06-18T10:25:45.222Z,5.93
2018-06-18T10:28:13.376Z,6.30
2018-06-18T10:30:41.674Z,5.40
2018-06-18T10:34:15.119Z,6.60
2018-06-18T10:36:48.550Z,6.47
2018-06-18T10:39:22.499Z,6.00
2018-06-18T10:41:56.949Z,4.87
2018-06-18T10:44:25.132Z,5.60
2018-06-18T10:46:53.384Z,6.70
2018-06-18T10:49:21.526Z,6.50
2018-06-18T10:51:49.684Z,6.13
2018-06-18T10:54:17.868Z,5.00
2018-06-18T10:56:45.987Z,4.67
2018-06-18T10:59:14.119Z,5.10
2018-06-18T11:01:42.364Z,4.60
2018-06-18T11:04:30.844Z,5.70
2018-06-18T11:06:59.392Z,4.70
2018-06-18T11:09:27.778Z,5.10
2018-06-18T11:11:55.950Z,4.70
2018-06-18T11:14:24.068Z,5.23
2018-06-18T11:16:57.918Z,5.23
2018-06-18T11:19:31.225Z,4.53
2018-06-18T11:22:04.278Z,5.57
2018-06-18T11:24:37.927Z,5.47
2018-06-18T11:27:06.705Z,4.67
2018-06-18T11:29:35.160Z,5.10
2018-06-18T11:32:03.510Z,5.17
2018-06-18T11:34:31.688Z,5.07
2018-06-18T11:37:00.920Z,4.67
2018-06-18T11:39:29.182Z,5.17
2018-06-18T11:41:57.398Z,4.60
2018-06-18T11:44:25.566Z,4.90
2018-06-18T11:46:53.673Z,5.20
2018-06-18T11:49:21.890Z,4.97
2018-06-18T11:51:50.097Z,4.50
2018-06-18T11:54:18.297Z,4.57
2018-06-18T11:56:46.559Z,4.57
2018-06-18T11:59:20.203Z,4.80
2018-06-18T12:01:53.680Z,5.20
2018-06-18T12:04:27.139Z,4.27
2018-06-18T12:07:01.330Z,4.07
2018-06-18T12:09:31.513Z,4.33
2018-06-18T12:11:59.613Z,3.60
2018-06-18T12:14:27.785Z,3.70
2018-06-18T12:16:56.004Z,3.20
2018-06-18T12:19:24.295Z,3.03
2018-06-18T12:21:52.443Z,2.50
2018-06-18T12:24:20.622Z,2.17
2018-06-18T12:26:48.932Z,3.00
2018-06-18T12:29:17.137Z,3.03
2018-06-18T12:31:45.306Z,2.60
2018-06-18T12:34:13.442Z,2.40
2018-06-18T12:36:42.203Z,2.50
2018-06-18T12:39:11.317Z,3.80
2018-06-18T12:41:42.679Z,3.33
2018-06-18T12:44:10.805Z,2.90
2018-06-18T12:46:44.245Z,2.60
2018-06-18T12:49:17.928Z,3.00
2018-06-18T12:51:51.547Z,2.60
2018-06-18T12:54:25.273Z,3.07
2018-06-18T12:56:56.569Z,3.03
2018-06-18T12:59:24.768Z,3.63
2018-06-18T13:01:56.748Z,2.40
2018-06-18T13:04:24.908Z,2.77
2018-06-18T13:06:53.061Z,2.50
2018-06-18T13:09:21.251Z,2.80
2018-06-18T13:11:49.507Z,2.57
2018-06-18T13:14:17.664Z,3.20
2018-06-18T13:16:45.810Z,2.93
2018-06-18T13:19:14.020Z,2.73
2018-06-18T13:21:42.265Z,3.10
2018-06-18T13:24:10.413Z,2.63
2018-06-18T13:26:39.413Z,2.80
2018-06-18T13:29:07.595Z,2.63
2018-06-18T13:31:36.718Z,3.33
2018-06-18T13:34:04.972Z,2.53
2018-06-18T13:36:33.396Z,2.40
2018-06-18T13:39:07.028Z,2.60
2018-06-18T13:41:40.809Z,2.27
2018-06-18T13:44:14.526Z,3.00
2018-06-18T13:46:48.242Z,3.20
2018-06-18T13:49:17.048Z,2.43
2018-06-18T13:51:45.187Z,2.27
2018-06-18T13:54:13.358Z,2.47
2018-06-18T13:56:41.674Z,2.67
2018-06-18T13:59:09.926Z,2.23
2018-06-18T14:01:38.240Z,2.60
2018-06-18T14:04:06.536Z,2.60
2018-06-18T14:06:34.847Z,2.20
2018-06-18T14:09:04.149Z,2.20
2018-06-18T14:11:32.426Z,2.83
2018-06-18T14:14:00.439Z,3.43
2018-06-18T14:16:28.616Z,2.30
2018-06-18T14:18:56.779Z,2.50
2018-06-18T14:21:24.990Z,2.37
2018-06-18T14:23:53.270Z,2.30
2018-06-18T14:26:21.402Z,1.80
2018-06-18T14:28:49.623Z,2.27
2018-06-18T14:31:23.065Z,2.40
2018-06-18T14:33:56.768Z,2.30
2018-06-18T14:36:30.377Z,1.90
2018-06-18T14:39:03.954Z,1.90
2018-06-18T14:41:32.129Z,1.87
2018-06-18T14:44:00.409Z,2.27
2018-06-18T14:46:29.369Z,2.13
2018-06-18T14:48:57.606Z,2.30
2018-06-18T14:51:25.764Z,2.33
2018-06-18T14:53:53.955Z,2.37
2018-06-18T14:56:28.259Z,2.13
2018-06-18T14:59:19.413Z,2.23
2018-06-18T15:01:47.633Z,2.07
2018-06-18T15:04:15.942Z,2.37
2018-06-18T15:06:44.102Z,1.90
2018-06-18T15:09:13.142Z,2.13
2018-06-18T15:11:41.848Z,2.50
2018-06-18T15:14:10.045Z,4.60
2018-06-18T15:16:38.228Z,2.60
2018-06-18T15:19:06.485Z,2.90
2018-06-18T15:21:38.571Z,2.27
2018-06-18T15:24:10.037Z,2.10
2018-06-18T15:26:38.204Z,2.33
2018-06-18T15:29:06.394Z,2.40
2018-06-18T15:31:34.640Z,2.00
2018-06-18T15:34:02.946Z,2.30
2018-06-18T15:36:31.110Z,2.10
2018-06-18T15:38:59.270Z,1.87
2018-06-18T15:41:27.631Z,1.97
2018-06-18T15:43:55.936Z,2.10
2018-06-18T15:46:24.032Z,1.90
2018-06-18T15:48:52.365Z,1.83
2018-06-18T15:51:20.688Z,2.20
2018-06-18T15:53:48.820Z,2.17
2018-06-18T15:56:16.989Z,1.97
2018-06-18T15:58:45.319Z,4.77
2018-06-18T16:01:13.562Z,2.40
2018-06-18T16:03:41.825Z,2.53
2018-06-18T16:06:10.039Z,6.13
2018-06-18T16:08:38.238Z,2.60
2018-06-18T16:11:06.557Z,2.40
2018-06-18T16:13:35.644Z,1.97
2018-06-18T16:16:03.915Z,1.80
2018-06-18T16:18:31.902Z,2.20
2018-06-18T16:21:00.107Z,2.43
2018-06-18T16:23:28.305Z,1.83
2018-06-18T16:25:56.497Z,1.57
2018-06-18T16:28:25.353Z,2.40
2018-06-18T16:30:53.544Z,2.40
2018-06-18T16:33:21.713Z,2.00
2018-06-18T16:35:49.974Z,2.37
2018-06-18T16:38:18.168Z,1.70
2018-06-18T16:40:46.369Z,1.80
2018-06-18T16:43:14.780Z,2.23
2018-06-18T16:45:43.029Z,2.60
2018-06-18T16:48:11.312Z,2.10
2018-06-18T16:50:39.500Z,2.23
2018-06-18T16:53:07.746Z,2.20
2018-06-18T16:55:36.820Z,3.13
2018-06-18T16:58:05.091Z,2.30
2018-06-18T17:00:33.649Z,2.30
2018-06-18T17:03:02.038Z,2.30
2018-06-18T17:05:30.168Z,2.20
2018-06-18T17:07:58.310Z,1.90
2018-06-18T17:10:26.497Z,2.00
2018-06-18T17:12:54.664Z,2.30
2018-06-18T17:15:22.847Z,2.00
2018-06-18T17:17:51.141Z,2.40
2018-06-18T17:20:19.356Z,1.90
2018-06-18T17:22:47.713Z,3.03
2018-06-18T17:25:15.901Z,2.27
2018-06-18T17:27:44.104Z,1.67
2018-06-18T17:30:12.330Z,2.10
2018-06-18T17:32:40.722Z,2.40
2018-06-18T17:35:09.221Z,1.67
2018-06-18T17:37:37.495Z,2.17
2018-06-18T17:40:05.872Z,2.03
2018-06-18T17:42:34.479Z,2.43
2018-06-18T17:45:02.652Z,1.60
2018-06-18T17:47:30.903Z,1.70
2018-06-18T17:49:59.189Z,1.33
2018-06-18T17:52:27.545Z,1.90
2018-06-18T17:54:56.146Z,1.73
2018-06-18T17:57:24.363Z,1.70
2018-06-18T17:59:52.566Z,2.30
2018-06-18T18:02:20.797Z,1.30
2018-06-18T18:04:49.050Z,1.27
2018-06-18T18:07:17.211Z,1.30
2018-06-18T18:09:45.518Z,1.13
2018-06-18T18:12:13.709Z,1.80
2018-06-18T18:14:41.992Z,1.20
2018-06-18T18:17:10.190Z,1.60
2018-06-18T18:19:38.429Z,1.57
2018-06-18T18:22:06.700Z,1.47
2018-06-18T18:24:35.149Z,1.80
2018-06-18T18:27:03.439Z,2.20
2018-06-18T18:29:31.717Z,2.00
2018-06-18T18:32:00.461Z,1.40
2018-06-18T18:34:29.004Z,1.30
2018-06-18T18:36:57.432Z,1.20
2018-06-18T18:39:25.816Z,2.03
2018-06-18T18:41:54.234Z,1.80
2018-06-18T18:44:22.685Z,1.93
2018-06-18T18:46:51.065Z,2.17
2018-06-18T18:49:19.393Z,1.77
2018-06-18T18:51:48.514Z,2.23
2018-06-18T18:54:31.724Z,1.77
2018-06-18T18:57:13.250Z,1.93
2018-06-18T18:59:45.886Z,1.87
2018-06-18T19:02:14.336Z,3.00
2018-06-18T19:04:59.530Z,2.57
2018-06-18T19:07:34.621Z,2.00
2018-06-18T19:10:24.556Z,2.00
2018-06-18T19:12:54.771Z,1.83
2018-06-18T19:15:23.592Z,2.10
2018-06-18T19:17:52.073Z,2.13
2018-06-18T19:20:36.604Z,2.40
2018-06-18T19:23:04.916Z,2.00
2018-06-18T19:25:33.348Z,3.73
2018-06-18T19:28:01.615Z,2.23
2018-06-18T19:30:30.717Z,2.43
2018-06-18T19:33:02.488Z,2.50
2018-06-18T19:35:30.763Z,2.63
2018-06-18T19:37:59.015Z,1.97
2018-06-18T19:40:27.334Z,7.37
2018-06-18T19:42:55.672Z,2.43
2018-06-18T19:45:24.991Z,2.20
2018-06-18T19:48:04.548Z,2.00
2018-06-18T19:50:32.873Z,2.43
2018-06-18T19:53:01.117Z,2.47
2018-06-18T19:55:31.536Z,2.70
2018-06-18T19:58:00.801Z,3.40
2018-06-18T20:00:41.444Z,2.50
2018-06-18T20:03:09.847Z,2.90
2018-06-18T20:05:38.208Z,3.10
2018-06-18T20:08:11.490Z,2.90
2018-06-18T20:10:39.811Z,2.60
2018-06-18T20:13:08.123Z,2.97
2018-06-18T20:15:36.367Z,2.33
2018-06-18T20:18:04.505Z,2.63
2018-06-18T20:20:32.933Z,2.30
2018-06-18T20:23:01.469Z,2.50
2018-06-18T20:25:38.934Z,2.43
2018-06-18T20:28:07.634Z,2.47
2018-06-18T20:30:36.033Z,2.50
2018-06-18T20:33:04.298Z,3.37
2018-06-18T20:35:35.155Z,2.60
2018-06-18T20:38:03.450Z,2.33
2018-06-18T20:40:31.784Z,3.20
2018-06-18T20:43:00.274Z,2.10
2018-06-18T20:45:31.742Z,2.23
2018-06-18T20:48:00.094Z,2.87
2018-06-18T20:50:28.405Z,3.27
2018-06-18T20:52:56.601Z,2.73
2018-06-18T20:55:24.770Z,2.80
2018-06-18T20:57:52.949Z,2.53
2018-06-18T21:00:21.187Z,2.70
2018-06-18T21:02:49.591Z,2.67
2018-06-18T21:05:17.776Z,2.40
2018-06-18T21:07:46.021Z,2.73
2018-06-18T21:10:14.271Z,2.47
2018-06-18T21:12:42.479Z,2.70
2018-06-18T21:15:10.783Z,2.60
2018-06-18T21:17:39.104Z,2.70
2018-06-18T21:20:07.353Z,2.93
2018-06-18T21:22:35.748Z,2.43
2018-06-18T21:25:04.383Z,2.67
2018-06-18T21:27:32.643Z,3.00
2018-06-18T21:30:00.820Z,2.70
2018-06-18T21:32:28.978Z,2.50
2018-06-18T21:34:57.784Z,2.27
2018-06-18T21:37:26.223Z,2.90
2018-06-18T21:39:55.165Z,2.50
2018-06-18T21:42:23.538Z,2.87
2018-06-18T21:44:58.729Z,2.77
2018-06-18T21:47:27.067Z,2.90
2018-06-18T21:49:55.288Z,3.00
2018-06-18T21:52:23.635Z,2.60
2018-06-18T21:54:51.839Z,2.87
2018-06-18T21:57:20.330Z,3.13
2018-06-18T21:59:48.539Z,3.30
2018-06-18T22:02:16.693Z,3.00
2018-06-18T22:04:44.831Z,2.80
2018-06-18T22:07:14.064Z,3.00
2018-06-18T22:09:42.194Z,2.87
2018-06-18T22:12:10.354Z,2.90
2018-06-18T22:14:38.526Z,2.63
2018-06-18T22:17:07.158Z,3.10
2018-06-18T22:19:35.598Z,3.13
2018-06-18T22:22:03.573Z,3.23
2018-06-18T22:24:31.710Z,3.00
2018-06-18T22:26:59.864Z,3.10
2018-06-18T22:29:27.985Z,2.60
2018-06-18T22:31:56.218Z,3.20
2018-06-18T22:34:24.413Z,2.70
2018-06-18T22:36:53.178Z,3.07
2018-06-18T22:39:21.137Z,2.90
2018-06-18T22:41:49.501Z,2.77
2018-06-18T22:44:17.758Z,3.30
2018-06-18T22:46:45.953Z,3.10
2018-06-18T22:49:14.123Z,3.00
2018-06-18T22:51:42.324Z,2.70
2018-06-18T22:54:10.472Z,2.60
2018-06-18T22:56:38.628Z,2.83
2018-06-18T22:59:06.988Z,2.60
2018-06-18T23:01:35.145Z,3.03
2018-06-18T23:04:03.314Z,2.63
2018-06-18T23:06:31.486Z,2.73
2018-06-18T23:09:01.989Z,3.13
2018-06-18T23:11:30.141Z,3.07
2018-06-18T23:13:58.267Z,2.87
2018-06-18T23:16:26.384Z,2.30
2018-06-18T23:18:54.334Z,3.00
2018-06-18T23:21:22.654Z,2.60
2018-06-18T23:23:50.804Z,2.57
2018-06-18T23:26:19.092Z,3.30
2018-06-18T23:28:53.348Z,3.00
2018-06-18T23:31:21.468Z,2.90
2018-06-18T23:33:50.039Z,2.73
2018-06-18T23:36:18.424Z,2.57
2018-06-18T23:38:46.746Z,2.67
2018-06-18T23:41:15.015Z,2.87
2018-06-18T23:43:43.127Z,3.03
2018-06-18T23:46:11.300Z,2.43
2018-06-18T23:48:39.564Z,2.80
2018-06-18T23:51:07.691Z,2.90
2018-06-18T23:53:35.946Z,2.80
2018-06-18T23:56:04.191Z,2.80
2018-06-18T23:58:32.365Z,3.30
